Latest Weather Observations for Cocos Island

IDW60801

Issued at 4:05 pm WST Wednesday 23 April 2014 (issued every 30 minutes, with the page automatically refreshed every 10 minutes)

About weather observations | Map of weather stations | Latest weather observations for WA | Other Formats
Station Details ID: 200284 Name: COCOS ISLAND AIRPORT Lat: -12.19 Lon: 96.83 Height: 3.0 m
Data from the previous 72 hours. | See also: Recent months at Cocos Island
Date/Time
WST
Temp
°C
App
Temp
°C
Dew
Point
Rel
Hum
%
Delta-T
°C
Wind Press
QNH
hPa
Press
MSL
hPa
Rain
since 9 am
mm
Dir
 
Spd
km/h
Gust
km/h
Spd
kts
Gust
kts
23/04:00pm 30.4 33.6 24.9 72 3.9 WNW 17 20 9 11 1006.8 - 0.0
23/03:30pm 30.9 33.3 24.2 67 4.7 WNW 19 22 10 12 1007.2 - 0.0
23/03:00pm 30.9 33.8 25.1 71 4.1 WNW 19 22 10 12 1007.4 - 0.0
23/02:30pm 31.1 34.3 25.0 70 4.3 WNW 17 22 9 12 1007.8 - 0.0
23/02:00pm 31.0 34.6 25.0 70 4.2 WNW 15 20 8 11 1008.0 1008.0 0.0
23/01:30pm 30.1 34.1 25.0 74 3.6 WNW 13 17 7 9 1008.5 - 0.0
23/01:00pm 30.1 34.0 24.8 73 3.7 WNW 13 17 7 9 1008.8 - 0.0
23/12:30pm 30.7 34.7 25.6 74 3.6 W 15 17 8 9 1008.9 - 0.0
23/12:00pm 30.4 34.8 25.6 75 3.4 W 13 17 7 9 1009.3 - 0.0
23/11:30am 30.0 33.4 24.6 73 3.8 W 15 19 8 10 1009.6 - 0.0
23/11:00am 29.7 33.4 24.5 73 3.6 WNW 13 15 7 8 1009.8 1009.8 0.2
23/10:30am 30.0 34.4 25.0 74 3.5 WNW 11 17 6 9 1009.7 - 0.2
23/10:00am 29.2 33.7 24.6 76 3.2 NW 9 13 5 7 1009.8 - 0.2
23/09:30am 29.2 33.3 24.6 76 3.2 WNW 11 15 6 8 1009.6 - 0.2
23/09:00am 28.8 33.2 24.5 77 3.0 WNW 9 13 5 7 1009.2 - 0.2
23/08:30am 28.3 32.9 24.7 81 2.5 WNW 9 15 5 8 1008.9 - 0.2
23/08:00am 27.7 32.1 24.4 82 2.3 W 9 13 5 7 1008.6 1008.6 0.2
23/07:30am 27.5 31.6 24.5 84 2.1 WNW 11 15 6 8 1008.1 - 0.2
23/07:00am 27.6 31.6 24.4 83 2.2 W 11 13 6 7 1008.0 - 0.2
23/06:30am 27.8 31.7 24.2 81 2.5 W 11 17 6 9 1007.7 - 0.2
23/06:00am 27.7 31.8 24.5 83 2.2 W 11 15 6 8 1007.7 - 0.2
23/05:30am 27.9 31.5 24.3 81 2.5 WNW 13 15 7 8 1007.8 - 0.2
23/05:00am 27.8 31.0 24.3 81 2.4 WNW 15 19 8 10 1007.9 1007.9 0.2
23/04:30am 27.7 31.8 24.5 83 2.2 W 11 13 6 7 1008.1 - 0.2
23/04:00am 28.0 31.6 24.3 80 2.6 W 13 17 7 9 1008.3 - 0.2
23/03:30am 28.0 31.6 24.4 81 2.5 WNW 13 17 7 9 1008.4 - 0.2
23/03:00am 28.1 31.8 24.5 81 2.5 WNW 13 19 7 10 1008.6 - 0.2
23/02:30am 28.2 31.0 24.3 79 2.7 W 17 20 9 11 1008.6 - 0.2
23/02:00am 28.2 31.5 24.5 80 2.6 W 15 19 8 10 1009.3 1009.3 0.2
23/01:30am 28.4 31.2 23.6 75 3.3 W 15 19 8 10 1009.3 - 0.2
23/01:00am 28.4 31.6 24.4 79 2.8 W 15 19 8 10 1009.6 - 0.2
23/12:30am 28.2 31.5 24.5 80 2.6 WNW 15 17 8 9 1009.5 - 0.2
23/12:00am 28.4 31.9 24.8 81 2.5 W 15 20 8 11 1009.5 - 0.2
 
Date/Time
WST
Temp
°C
App
Temp
°C
Dew
Point
Rel
Hum
%
Delta-T
°C
Wind Press
QNH
hPa
Press
MSL
hPa
Rain
since 9 am
mm
Dir
 
Spd
km/h
Gust
km/h
Spd
kts
Gust
kts
22/11:30pm 28.7 32.9 25.3 82 2.4 W 13 17 7 9 1009.7 - 0.2
22/11:00pm 28.5 32.7 24.8 80 2.6 W 11 17 6 9 1009.5 1009.5 0.2
22/10:30pm 28.7 32.2 24.8 79 2.7 W 15 19 8 10 1009.5 - 0.2
22/10:00pm 28.7 31.8 24.2 76 3.1 W 15 20 8 11 1009.4 - 0.2
22/09:30pm 28.7 32.6 24.8 79 2.7 W 13 17 7 9 1009.1 - 0.2
22/09:00pm 28.6 32.7 25.2 82 2.4 WNW 13 17 7 9 1008.7 - 0.2
22/08:30pm 28.7 31.9 25.0 80 2.6 W 17 20 9 11 1008.3 - 0.2
22/08:00pm 28.7 32.2 25.4 82 2.3 W 17 20 9 11 1008.1 1008.1 0.2
22/07:30pm 28.9 31.6 24.8 78 2.9 WNW 19 24 10 13 1007.9 - 0.2
22/07:00pm 28.9 33.2 25.5 82 2.4 W 13 19 7 10 1007.6 - 0.2
22/06:30pm 29.3 32.0 25.0 77 3.0 WNW 20 24 11 13 1007.4 - 0.2
22/06:00pm 29.9 31.9 25.1 75 3.4 WNW 24 32 13 17 1007.0 - 0.2
22/05:30pm 30.7 32.6 25.0 71 4.0 WNW 24 32 13 17 1006.7 - 0.2
22/05:00pm 30.7 32.6 25.0 71 4.0 WNW 24 28 13 15 1006.7 1006.7 0.2
22/04:30pm 31.1 32.5 24.8 69 4.4 WNW 26 32 14 17 1007.0 - 0.2
22/04:00pm 30.8 32.5 25.3 72 3.9 WNW 26 33 14 18 1007.0 - 0.2
22/03:30pm 30.9 32.7 25.5 73 3.8 WNW 26 33 14 18 1007.3 - 0.0
22/03:00pm 30.9 32.7 25.4 72 3.9 WNW 26 35 14 19 1007.6 - 0.0
22/02:42pm 30.9 32.5 25.8 74 3.6 WNW 28 35 15 19 1007.7 - 0.0
22/02:30pm 30.8 32.2 26.0 75 3.4 WNW 30 35 16 19 1007.8 - 0.0
22/02:14pm 30.5 32.7 26.0 77 3.2 WNW 26 33 14 18 1008.0 - 0.0
22/02:00pm 29.3 32.1 26.4 84 2.1 WNW 24 35 13 19 1008.2 1008.2 0.0
22/01:30pm 31.3 33.3 25.7 72 4.0 NW 26 35 14 19 1008.5 - 0.0
22/01:00pm 31.0 32.8 24.9 70 4.3 NW 24 33 13 18 1008.7 - 0.0
22/12:30pm 31.3 34.0 26.3 75 3.6 NW 24 32 13 17 1009.0 - 0.0
22/12:00pm 29.5 31.5 25.2 77 3.0 NW 24 35 13 19 1009.4 - 0.0
22/11:30am 31.0 33.0 25.2 71 4.1 NW 24 33 13 18 1009.6 - 0.0
22/11:00am 30.9 32.5 25.2 71 4.0 NW 26 33 14 18 1009.6 1009.6 0.4
22/10:30am 30.7 32.5 24.9 71 4.1 NW 24 32 13 17 1009.5 - 0.4
22/10:00am 30.4 32.0 24.5 70 4.1 NW 24 30 13 16 1009.3 - 0.4
22/09:30am 30.1 31.7 24.5 72 3.9 NW 24 32 13 17 1008.9 - 0.4
22/09:00am 29.5 31.1 24.5 74 3.5 NW 24 33 13 18 1008.6 - 0.4
22/08:30am 29.1 30.9 24.8 77 3.0 NW 24 32 13 17 1008.4 - 0.4
22/08:00am 28.6 29.9 24.7 79 2.7 NW 26 33 14 18 1008.1 1008.1 0.4
22/07:30am 28.6 29.7 24.4 78 2.9 NW 26 33 14 18 1007.9 - 0.4
22/07:00am 28.5 30.1 24.5 79 2.8 NNW 24 33 13 18 1007.5 - 0.4
22/06:30am 28.5 31.0 24.8 80 2.6 NNW 20 30 11 16 1007.3 - 0.4
22/06:00am 28.5 30.7 24.8 80 2.6 NNW 22 32 12 17 1007.0 - 0.4
22/05:30am 28.3 30.8 24.7 81 2.5 NNW 20 33 11 18 1006.9 - 0.4
22/05:00am 28.3 30.2 24.4 79 2.7 NNW 22 30 12 16 1006.9 1006.9 0.4
22/04:30am 28.3 30.8 24.7 81 2.5 NNW 20 28 11 15 1006.9 - 0.4
22/04:00am 28.5 30.5 24.6 79 2.7 NNW 22 33 12 18 1006.9 - 0.4
22/03:30am 28.4 30.9 24.7 80 2.6 NNW 20 33 11 18 1007.0 - 0.4
22/03:00am 28.5 31.2 25.1 82 2.4 NNW 20 28 11 15 1007.4 - 0.4
22/02:30am 28.4 31.6 25.0 82 2.4 NNW 17 28 9 15 1007.7 - 0.4
22/02:00am 28.4 31.1 25.1 82 2.3 NNW 20 30 11 16 1008.0 1008.0 0.4
22/01:30am 28.2 31.9 25.7 86 1.8 N 17 24 9 13 1008.3 - 0.4
22/01:00am 28.7 31.6 25.4 82 2.3 N 20 30 11 16 1008.4 - 0.4
22/12:30am 28.5 31.8 25.7 85 2.0 N 19 28 10 15 1008.6 - 0.4
22/12:00am 28.6 31.6 25.3 82 2.3 N 19 26 10 14 1008.9 - 0.4
 
Date/Time
WST
Temp
°C
App
Temp
°C
Dew
Point
Rel
Hum
%
Delta-T
°C
Wind Press
QNH
hPa
Press
MSL
hPa
Rain
since 9 am
mm
Dir
 
Spd
km/h
Gust
km/h
Spd
kts
Gust
kts
21/11:30pm 28.7 31.0 25.1 81 2.5 N 22 35 12 19 1009.2 - 0.4
21/11:00pm 28.6 31.8 25.6 84 2.1 N 19 28 10 15 1009.3 1009.3 0.4
21/10:30pm 28.9 31.5 24.6 77 3.0 N 19 26 10 14 1009.3 - 0.4
21/10:00pm 28.9 31.8 25.1 80 2.7 N 19 28 10 15 1009.1 - 0.4
21/09:30pm 29.0 31.5 24.7 77 3.0 N 20 30 11 16 1008.8 - 0.4
21/09:00pm 28.9 31.3 25.2 80 2.6 N 22 32 12 17 1008.4 - 0.4
21/08:30pm 28.8 31.4 25.5 82 2.3 N 22 30 12 16 1008.1 - 0.4
21/08:00pm 28.7 30.6 25.0 80 2.6 N 24 32 13 17 1007.8 1007.8 0.4
21/07:30pm 28.8 31.2 24.3 76 3.1 N 19 28 10 15 1007.5 - 0.4
21/07:00pm 28.8 30.4 25.7 83 2.2 N 28 35 15 19 1007.3 - 0.4
21/06:30pm 28.9 32.1 24.9 79 2.8 N 17 24 9 13 1007.2 - 0.4
21/06:00pm 28.8 30.3 25.5 82 2.3 NNE 28 33 15 18 1006.8 - 0.4
21/05:35pm 28.0 29.6 25.2 85 2.0 N 26 33 14 18 1006.7 - 0.4
21/05:30pm 27.7 29.3 25.1 86 1.8 N 26 37 14 20 1006.6 - 0.4
21/05:16pm 27.5 27.4 24.6 84 2.0 NNE 33 52 18 28 1006.6 - 0.4
21/05:11pm 29.4 30.6 25.7 80 2.6 NNE 30 52 16 28 1006.5 - 0.2
21/05:00pm 30.1 31.4 25.3 75 3.4 NNE 28 32 15 17 1006.5 1006.5 0.2
21/04:30pm 29.8 31.9 25.4 77 3.1 N 24 30 13 16 1006.5 - 0.2
21/04:00pm 29.7 31.8 25.3 77 3.1 N 24 32 13 17 1006.7 - 0.2
21/03:30pm 30.2 32.0 25.4 75 3.4 N 26 30 14 16 1006.9 - 0.2
21/03:00pm 30.2 32.4 24.8 73 3.8 N 22 28 12 15 1007.2 - 0.2
21/02:30pm 30.6 32.9 25.7 75 3.5 N 24 28 13 15 1007.4 - 0.2
21/02:00pm 30.6 33.4 25.8 75 3.4 NNE 22 28 12 15 1007.7 1007.7 0.2
21/01:30pm 30.3 32.8 25.3 74 3.5 N 22 26 12 14 1008.1 - 0.2
21/01:00pm 30.0 31.9 25.0 74 3.5 N 24 28 13 15 1008.4 - 0.2
21/12:30pm 29.4 32.1 25.6 80 2.7 NNE 22 28 12 15 1008.5 - 0.2
21/12:00pm 29.7 32.3 25.5 78 3.0 N 22 28 12 15 1008.7 - 0.0
21/11:30am 29.4 32.5 25.7 80 2.6 N 20 28 11 15 1009.0 - 0.0
21/11:17am 29.2 32.3 25.7 81 2.5 NNE 20 26 11 14 1009.1 - 0.0
21/11:00am 27.9 30.5 24.9 84 2.1 NNE 20 30 11 16 1009.1 1009.1 1.6
21/10:30am 29.1 31.2 25.4 80 2.6 NNE 24 26 13 14 1008.8 - 1.4
21/10:00am 28.8 31.3 25.4 82 2.4 N 22 26 12 14 1008.4 - 1.4
21/09:30am 28.3 31.3 24.7 81 2.5 N 17 20 9 11 1008.2 - 1.2
21/09:00am 28.3 30.9 24.6 80 2.6 N 19 22 10 12 1008.0 - 1.2
21/08:30am 28.1 30.9 25.0 83 2.2 N 19 22 10 12 1007.6 - 1.2
21/08:00am 27.9 30.9 24.7 83 2.2 N 17 20 9 11 1007.4 1007.4 1.2
21/07:30am 27.6 30.6 24.6 84 2.1 NNE 17 20 9 11 1006.6 - 1.2
21/07:00am 27.5 29.7 23.9 81 2.5 N 19 22 10 12 1006.3 - 1.2
21/06:30am 27.5 31.2 24.6 84 2.0 N 13 20 7 11 1006.4 - 1.2
21/06:00am 27.7 31.2 24.2 81 2.4 N 13 20 7 11 1006.5 - 1.2
21/05:30am 27.4 31.5 23.9 81 2.4 NNW 9 15 5 8 1006.9 - 1.2
21/05:00am 27.4 30.7 23.9 81 2.4 NNW 13 17 7 9 1007.1 1007.1 1.2
21/04:30am 27.4 31.7 24.2 83 2.2 NNW 9 15 5 8 1007.3 - 1.2
21/04:00am 27.3 31.6 24.3 84 2.1 NNW 9 13 5 7 1007.2 - 1.2
21/03:30am 27.2 30.9 23.9 82 2.3 NNW 11 15 6 8 1007.4 - 1.2
21/03:00am 27.2 30.0 23.7 81 2.4 NNW 15 19 8 10 1007.3 - 1.2
21/02:30am 27.3 30.7 24.0 82 2.3 N 13 22 7 12 1006.9 - 1.2
21/02:00am 27.1 30.2 24.2 84 2.0 N 15 20 8 11 1007.0 1007.0 1.2
21/01:30am 27.0 30.1 23.5 81 2.4 N 13 19 7 10 1007.4 - 1.2
21/01:00am 26.9 30.4 23.5 81 2.3 NNW 11 15 6 8 1007.7 - 1.2
21/12:30am 26.8 30.3 23.6 82 2.2 N 11 17 6 9 1007.7 - 1.2
21/12:00am 26.7 30.4 23.9 84 1.9 NNW 11 17 6 9 1007.7 - 1.2
 
Date/Time
WST
Temp
°C
App
Temp
°C
Dew
Point
Rel
Hum
%
Delta-T
°C
Wind Press
QNH
hPa
Press
MSL
hPa
Rain
since 9 am
mm
Dir
 
Spd
km/h
Gust
km/h
Spd
kts
Gust
kts
20/11:30pm 26.7 30.4 23.9 84 1.9 NNW 11 15 6 8 1007.6 - 1.2
20/11:00pm 26.7 30.0 23.8 84 2.0 NNW 13 19 7 10 1007.8 1007.8 1.2
20/10:30pm 26.5 30.2 23.9 85 1.8 NW 11 17 6 9 1007.8 - 1.2
20/10:00pm 26.6 28.5 23.8 84 1.9 NW 20 30 11 16 1007.9 - 1.2
20/09:30pm 26.5 28.5 23.9 85 1.8 NW 20 28 11 15 1007.8 - 1.2
20/09:00pm 26.4 27.0 24.1 87 1.6 NW 28 39 15 21 1007.9 - 1.2
20/08:30pm 27.1 27.2 23.9 82 2.2 NW 30 37 16 20 1007.8 - 1.2
20/08:00pm 27.0 28.9 24.4 86 1.8 NNW 22 35 12 19 1007.5 1007.5 1.2
20/07:30pm 27.0 29.0 24.6 87 1.7 NNW 22 33 12 18 1007.1 - 1.2
20/07:00pm 26.1 28.7 23.9 88 1.5 N 17 24 9 13 1006.9 - 1.2
20/06:30pm 26.1 27.7 23.9 88 1.5 NNW 22 35 12 19 1007.0 - 0.8
20/06:00pm 27.0 29.1 25.3 90 1.2 N 24 35 13 19 1006.6 - 0.4

Other Formats:

Comma delimited format used in spreadsheet applications
http://www.bom.gov.au/fwo/IDW60801/IDW60801.96996.axf

JavaScript Object Notation format (JSON) in row-major order
http://www.bom.gov.au/fwo/IDW60801/IDW60801.96996.json